createdAt,value
2023-01-13T00:00:16.701Z,1.45
2023-01-13T00:02:43.666Z,1.44
2023-01-13T00:05:10.946Z,1.41
2023-01-13T00:07:40.171Z,1.29
2023-01-13T00:10:10.209Z,1.28
2023-01-13T00:12:42.325Z,1.24
2023-01-13T00:15:10.821Z,1.24
2023-01-13T00:17:38.850Z,1.29
2023-01-13T00:20:07.383Z,1.29
2023-01-13T00:22:35.741Z,1.34
2023-01-13T00:25:04.393Z,1.40
2023-01-13T00:27:31.732Z,1.30
2023-01-13T00:29:59.975Z,1.42
2023-01-13T00:32:27.427Z,1.41
2023-01-13T00:34:54.414Z,1.39
2023-01-13T00:37:21.740Z,1.41
2023-01-13T00:39:48.748Z,1.45
2023-01-13T00:42:34.504Z,1.41
2023-01-13T00:45:01.412Z,1.35
2023-01-13T00:47:28.280Z,1.35
2023-01-13T00:49:55.559Z,1.32
2023-01-13T00:52:22.460Z,1.39
2023-01-13T00:54:49.424Z,1.40
2023-01-13T00:57:16.453Z,1.37
2023-01-13T00:59:43.820Z,1.40
2023-01-13T01:02:10.857Z,1.41
2023-01-13T01:04:37.985Z,1.41
2023-01-13T01:07:04.958Z,1.39
2023-01-13T01:09:32.757Z,1.35
2023-01-13T01:12:00.770Z,1.31
2023-01-13T01:14:28.024Z,1.35
2023-01-13T01:16:55.012Z,1.40
2023-01-13T01:19:21.856Z,1.42
2023-01-13T01:21:48.701Z,1.42
2023-01-13T01:24:16.628Z,1.39
2023-01-13T01:26:43.767Z,1.42
2023-01-13T01:29:14.561Z,1.38
2023-01-13T01:31:41.491Z,1.28
2023-01-13T01:34:08.358Z,1.10
2023-01-13T01:36:36.559Z,1.20
2023-01-13T01:39:04.052Z,1.17
2023-01-13T01:41:33.596Z,1.24
2023-01-13T01:44:08.514Z,1.26
2023-01-13T01:46:42.419Z,1.29
2023-01-13T01:49:12.640Z,1.44
2023-01-13T01:51:45.746Z,1.47
2023-01-13T01:54:15.990Z,1.49
2023-01-13T01:56:43.843Z,1.54
2023-01-13T01:59:11.539Z,1.56
2023-01-13T02:01:39.624Z,1.61
2023-01-13T02:04:15.581Z,1.66
2023-01-13T02:06:43.557Z,1.69
2023-01-13T02:09:11.166Z,1.65
2023-01-13T02:11:56.753Z,1.55
2023-01-13T02:14:26.337Z,1.67
2023-01-13T02:17:09.186Z,1.74
2023-01-13T02:19:38.957Z,1.78
2023-01-13T02:22:19.656Z,1.81
2023-01-13T02:24:55.232Z,1.85
2023-01-13T02:27:40.550Z,1.90
2023-01-13T02:30:49.154Z,1.92
2023-01-13T02:33:27.998Z,1.93
2023-01-13T02:36:08.209Z,1.96
2023-01-13T02:38:52.491Z,1.92
2023-01-13T02:41:44.929Z,1.86
2023-01-13T02:44:12.852Z,1.89
2023-01-13T02:47:06.536Z,1.85
2023-01-13T02:49:45.516Z,1.90
2023-01-13T02:52:25.192Z,1.93
2023-01-13T02:54:58.056Z,1.89
2023-01-13T02:57:26.508Z,1.90
2023-01-13T02:59:55.498Z,1.90
2023-01-13T03:02:23.500Z,1.88
2023-01-13T03:04:52.383Z,1.89
2023-01-13T03:07:34.050Z,1.85
2023-01-13T03:10:22.933Z,1.91
2023-01-13T03:12:52.654Z,1.90
2023-01-13T03:15:37.051Z,1.87
2023-01-13T03:18:12.654Z,1.89
2023-01-13T03:20:44.980Z,1.91
2023-01-13T03:23:24.893Z,1.89
2023-01-13T03:26:04.245Z,1.91
2023-01-13T03:28:46.471Z,1.90
2023-01-13T03:31:17.823Z,1.82
2023-01-13T03:33:52.864Z,1.88
2023-01-13T03:36:23.125Z,1.87
2023-01-13T03:38:54.457Z,1.87
2023-01-13T03:41:37.919Z,1.88
2023-01-13T03:44:22.159Z,1.75
2023-01-13T03:47:07.386Z,1.83
2023-01-13T03:49:49.009Z,1.80
2023-01-13T03:52:21.246Z,1.83
2023-01-13T03:54:58.143Z,1.80
2023-01-13T03:57:28.423Z,1.73
2023-01-13T03:59:59.124Z,1.72
2023-01-13T04:02:36.522Z,1.80
2023-01-13T04:05:08.768Z,1.81
2023-01-13T04:07:44.599Z,1.72
2023-01-13T04:10:12.677Z,1.68
2023-01-13T04:13:02.654Z,1.74
2023-01-13T04:15:41.370Z,1.74
2023-01-13T04:18:11.693Z,1.72
2023-01-13T04:20:40.052Z,1.79
2023-01-13T04:23:07.032Z,1.81
2023-01-13T04:25:34.203Z,1.70
2023-01-13T04:28:01.242Z,1.80
2023-01-13T04:30:28.144Z,1.81
2023-01-13T04:32:55.091Z,1.81
2023-01-13T04:35:21.915Z,1.77
2023-01-13T04:37:48.878Z,1.64
2023-01-13T04:40:15.991Z,1.53
2023-01-13T04:42:44.636Z,1.54
2023-01-13T04:45:12.181Z,1.51
2023-01-13T04:47:39.125Z,1.50
2023-01-13T04:50:06.240Z,1.41
2023-01-13T04:52:33.254Z,1.52
2023-01-13T04:55:00.178Z,1.40
2023-01-13T04:57:27.045Z,1.36
2023-01-13T04:59:54.886Z,1.41
2023-01-13T05:02:21.853Z,1.32
2023-01-13T05:04:49.020Z,1.32
2023-01-13T05:07:16.827Z,1.23
2023-01-13T05:09:43.769Z,1.22
2023-01-13T05:12:29.659Z,1.27
2023-01-13T05:15:15.188Z,1.22
2023-01-13T05:17:42.541Z,1.13
2023-01-13T05:20:10.466Z,1.11
2023-01-13T05:22:56.232Z,1.11
2023-01-13T05:25:24.584Z,1.14
2023-01-13T05:27:56.602Z,1.17
2023-01-13T05:30:26.742Z,1.06
2023-01-13T05:32:54.149Z,1.13
2023-01-13T05:35:21.139Z,1.12
2023-01-13T05:37:48.103Z,1.00
2023-01-13T05:40:36.372Z,0.97
2023-01-13T05:43:19.845Z,0.95
2023-01-13T05:45:46.790Z,1.05
2023-01-13T05:48:14.424Z,1.04
2023-01-13T05:50:41.393Z,1.08
2023-01-13T05:53:08.406Z,0.94
2023-01-13T05:55:35.369Z,1.01
2023-01-13T05:58:02.186Z,1.04
2023-01-13T06:00:29.800Z,0.97
2023-01-13T06:02:56.674Z,0.93
2023-01-13T06:05:23.453Z,0.87
2023-01-13T06:07:50.887Z,0.97
2023-01-13T06:10:18.477Z,0.89
2023-01-13T06:12:45.421Z,0.96
2023-01-13T06:15:12.309Z,1.07
2023-01-13T06:17:39.168Z,1.11
2023-01-13T06:20:09.179Z,1.12
2023-01-13T06:22:39.884Z,1.08
2023-01-13T06:25:45.741Z,1.04
2023-01-13T06:28:13.301Z,0.97
2023-01-13T06:30:45.048Z,0.98
2023-01-13T06:33:15.734Z,0.94
2023-01-13T06:35:45.889Z,0.94
2023-01-13T06:38:15.456Z,0.95
2023-01-13T06:40:42.717Z,0.87
2023-01-13T06:43:16.705Z,0.88
2023-01-13T06:45:49.717Z,0.84
2023-01-13T06:48:17.688Z,0.86
2023-01-13T06:50:44.838Z,0.83
2023-01-13T06:53:12.275Z,0.87
2023-01-13T06:55:39.151Z,0.90
2023-01-13T06:58:06.095Z,0.99
2023-01-13T07:00:35.656Z,0.84
2023-01-13T07:03:11.220Z,0.86
2023-01-13T07:05:38.583Z,0.96
2023-01-13T07:08:05.576Z,0.89
2023-01-13T07:10:32.903Z,0.97
2023-01-13T07:13:22.316Z,0.98
2023-01-13T07:16:03.530Z,0.89
2023-01-13T07:18:32.076Z,0.97
2023-01-13T07:21:01.527Z,0.98
2023-01-13T07:23:29.592Z,0.96
2023-01-13T07:25:57.445Z,1.05
2023-01-13T07:28:25.076Z,1.05
2023-01-13T07:30:52.222Z,1.04
2023-01-13T07:33:19.336Z,1.06
2023-01-13T07:35:47.034Z,1.13
2023-01-13T07:38:14.957Z,1.02
2023-01-13T07:40:42.020Z,1.16
2023-01-13T07:43:30.796Z,1.14
2023-01-13T07:46:03.134Z,1.23
2023-01-13T07:48:34.659Z,1.25
2023-01-13T07:51:11.654Z,1.40
2023-01-13T07:53:38.928Z,1.41
2023-01-13T07:56:07.110Z,1.52
2023-01-13T07:58:35.220Z,1.55
2023-01-13T08:01:10.636Z,1.61
2023-01-13T08:03:38.679Z,1.59
2023-01-13T08:06:06.677Z,1.64
2023-01-13T08:08:33.706Z,1.62
2023-01-13T08:11:01.415Z,1.52
2023-01-13T08:13:28.201Z,1.55
2023-01-13T08:16:01.015Z,1.58
2023-01-13T08:18:27.911Z,1.50
2023-01-13T08:20:55.156Z,1.55
2023-01-13T08:23:22.888Z,1.61
2023-01-13T08:25:50.324Z,1.55
2023-01-13T08:28:17.806Z,1.47
2023-01-13T08:30:45.288Z,1.52
2023-01-13T08:33:12.963Z,1.37
2023-01-13T08:35:40.729Z,1.43
2023-01-13T08:38:08.985Z,1.37
2023-01-13T08:40:36.283Z,1.36
2023-01-13T08:43:03.525Z,1.53
2023-01-13T08:45:30.380Z,1.64
2023-01-13T08:47:57.465Z,1.61
2023-01-13T08:50:24.628Z,1.58
2023-01-13T08:52:51.476Z,1.65
2023-01-13T08:55:18.410Z,1.62
2023-01-13T08:57:45.459Z,1.72
2023-01-13T09:00:13.928Z,1.75
2023-01-13T09:02:42.035Z,1.81
2023-01-13T09:05:10.423Z,1.71
2023-01-13T09:07:38.498Z,1.70
2023-01-13T09:10:07.521Z,1.74
2023-01-13T09:12:52.802Z,1.74
2023-01-13T09:15:19.815Z,1.68
2023-01-13T09:17:47.910Z,1.75
2023-01-13T09:20:15.136Z,1.85
2023-01-13T09:22:42.232Z,1.90
2023-01-13T09:25:09.910Z,1.99
2023-01-13T09:27:36.681Z,2.16
2023-01-13T09:30:04.395Z,2.20
2023-01-13T09:32:31.279Z,2.26
2023-01-13T09:35:00.894Z,2.24
2023-01-13T09:37:34.295Z,2.26
2023-01-13T09:40:02.463Z,2.27
2023-01-13T09:43:11.588Z,2.38
2023-01-13T09:45:51.793Z,2.41
2023-01-13T09:48:27.734Z,2.50
2023-01-13T09:51:00.246Z,2.42
2023-01-13T09:53:33.649Z,2.49
2023-01-13T09:56:00.896Z,2.54
2023-01-13T09:58:27.690Z,2.57
2023-01-13T10:01:11.584Z,2.59
2023-01-13T10:03:38.729Z,2.62
2023-01-13T10:06:15.680Z,2.60
2023-01-13T10:08:44.748Z,2.66
2023-01-13T10:11:34.359Z,2.79
2023-01-13T10:14:04.403Z,2.85
2023-01-13T10:16:42.267Z,2.89
2023-01-13T10:19:18.733Z,2.92
2023-01-13T10:21:57.702Z,3.07
2023-01-13T10:24:40.408Z,3.24
2023-01-13T10:27:23.473Z,3.26
2023-01-13T10:29:51.134Z,3.33
2023-01-13T10:32:18.098Z,3.39
2023-01-13T10:34:52.477Z,3.44
2023-01-13T10:37:27.134Z,3.61
2023-01-13T10:39:57.760Z,3.71
2023-01-13T10:42:25.539Z,3.79
2023-01-13T10:44:57.645Z,3.86
2023-01-13T10:47:26.706Z,3.91
2023-01-13T10:50:03.717Z,3.93
2023-01-13T10:52:32.974Z,3.98
2023-01-13T10:55:01.067Z,4.00
2023-01-13T10:57:28.809Z,4.02
2023-01-13T10:59:56.395Z,4.04
2023-01-13T11:02:29.905Z,3.98
2023-01-13T11:04:58.072Z,3.98
2023-01-13T11:07:34.144Z,3.93
2023-01-13T11:10:31.399Z,3.91
2023-01-13T11:13:16.917Z,3.94
2023-01-13T11:15:53.843Z,3.92
2023-01-13T11:19:02.365Z,3.92
2023-01-13T11:21:35.443Z,3.92
2023-01-13T11:24:49.491Z,3.90
2023-01-13T11:27:39.551Z,3.90
2023-01-13T11:30:29.857Z,3.90
2023-01-13T11:33:31.048Z,3.91
2023-01-13T11:36:34.521Z,3.82
2023-01-13T11:39:29.278Z,3.89
2023-01-13T11:42:20.519Z,3.86
2023-01-13T11:45:09.042Z,3.81
2023-01-13T11:47:36.579Z,3.76
2023-01-13T11:50:04.516Z,3.74
2023-01-13T11:52:58.475Z,3.77
2023-01-13T11:55:48.206Z,3.77
2023-01-13T11:58:21.022Z,3.77
2023-01-13T12:01:23.391Z,3.72
2023-01-13T12:04:06.559Z,3.66
2023-01-13T12:06:39.142Z,3.71
2023-01-13T12:09:15.171Z,3.66
2023-01-13T12:12:16.184Z,3.63
2023-01-13T12:15:02.960Z,3.63
2023-01-13T12:17:38.838Z,3.62
2023-01-13T12:20:30.449Z,3.60
2023-01-13T12:23:02.338Z,3.62
2023-01-13T12:25:33.428Z,3.64
2023-01-13T12:28:39.183Z,3.66
2023-01-13T12:31:07.416Z,3.77
2023-01-13T12:33:50.399Z,3.72
2023-01-13T12:36:44.397Z,3.72
2023-01-13T12:39:41.706Z,3.70
2023-01-13T12:42:45.637Z,3.68
2023-01-13T12:45:12.428Z,3.66
2023-01-13T12:47:43.566Z,3.70
2023-01-13T12:50:23.930Z,3.69
2023-01-13T12:52:55.262Z,3.73
2023-01-13T12:55:29.336Z,3.77
2023-01-13T12:58:04.561Z,3.78
2023-01-13T13:00:52.507Z,3.81
2023-01-13T13:03:31.736Z,3.87
2023-01-13T13:06:08.297Z,3.86
2023-01-13T13:09:06.653Z,3.84
2023-01-13T13:12:01.011Z,3.82
2023-01-13T13:14:39.910Z,3.88
2023-01-13T13:17:28.638Z,3.87
2023-01-13T13:19:57.558Z,3.87
2023-01-13T13:22:27.269Z,3.82
2023-01-13T13:24:59.720Z,3.84
2023-01-13T13:27:31.822Z,3.85
2023-01-13T13:30:02.176Z,3.86
2023-01-13T13:32:58.391Z,3.90
2023-01-13T13:35:56.106Z,3.92
2023-01-13T13:39:00.701Z,3.93
2023-01-13T13:41:46.267Z,3.89
2023-01-13T13:44:52.267Z,3.89
2023-01-13T13:47:19.427Z,3.81
2023-01-13T13:49:55.827Z,3.83
2023-01-13T13:52:54.091Z,3.83
2023-01-13T13:55:26.331Z,3.86
2023-01-13T13:57:54.972Z,3.85
2023-01-13T14:00:26.953Z,3.78
2023-01-13T14:02:59.005Z,3.83
2023-01-13T14:05:31.426Z,3.81
2023-01-13T14:08:02.802Z,3.80
2023-01-13T14:10:35.650Z,3.79
2023-01-13T14:13:22.758Z,3.77
2023-01-13T14:16:04.456Z,3.72
2023-01-13T14:18:34.963Z,3.75
2023-01-13T14:21:40.182Z,3.73
2023-01-13T14:24:15.568Z,3.72
2023-01-13T14:26:42.483Z,3.70
2023-01-13T14:29:13.793Z,3.74
2023-01-13T14:31:40.984Z,3.76
2023-01-13T14:34:31.054Z,3.78
2023-01-13T14:36:55.424Z,3.78
2023-01-13T14:39:34.019Z,3.76
2023-01-13T14:42:00.880Z,3.79
2023-01-13T14:44:35.104Z,3.81
2023-01-13T14:47:19.716Z,3.78
2023-01-13T14:50:02.304Z,3.79
2023-01-13T14:52:36.066Z,3.78
2023-01-13T14:55:06.726Z,3.73
2023-01-13T14:57:35.213Z,3.74
2023-01-13T15:00:02.034Z,3.76
2023-01-13T15:02:37.718Z,3.76
2023-01-13T15:05:19.922Z,3.78
2023-01-13T15:08:13.921Z,3.76
2023-01-13T15:11:01.450Z,3.74
2023-01-13T15:14:01.710Z,3.76
2023-01-13T15:16:29.996Z,3.77
2023-01-13T15:18:58.247Z,3.71
2023-01-13T15:21:25.316Z,3.70
2023-01-13T15:23:52.172Z,3.70
2023-01-13T15:26:26.939Z,3.70
2023-01-13T15:28:55.883Z,3.71
2023-01-13T15:31:23.713Z,3.73
2023-01-13T15:33:50.717Z,3.75
2023-01-13T15:36:29.413Z,3.71
2023-01-13T15:38:57.980Z,3.74
2023-01-13T15:41:43.960Z,3.74
2023-01-13T15:44:30.721Z,3.76
2023-01-13T15:46:58.735Z,3.76
2023-01-13T15:49:37.381Z,3.78
2023-01-13T15:52:05.845Z,3.82
2023-01-13T15:54:32.696Z,3.84
2023-01-13T15:56:59.655Z,3.87
2023-01-13T15:59:27.666Z,3.87
2023-01-13T16:01:54.695Z,3.89
2023-01-13T16:04:21.563Z,3.91
2023-01-13T16:06:48.520Z,3.89
2023-01-13T16:09:16.830Z,3.85
2023-01-13T16:11:44.058Z,3.93
2023-01-13T16:14:11.106Z,3.93
2023-01-13T16:16:38.332Z,3.90
2023-01-13T16:19:07.116Z,3.89
2023-01-13T16:21:34.059Z,3.93
2023-01-13T16:24:00.928Z,3.90
2023-01-13T16:26:36.244Z,3.93
2023-01-13T16:29:03.708Z,3.99
2023-01-13T16:31:33.920Z,4.02
2023-01-13T16:34:02.542Z,4.07
2023-01-13T16:36:34.374Z,4.09
2023-01-13T16:39:01.632Z,4.15
2023-01-13T16:41:28.449Z,4.09
2023-01-13T16:43:55.424Z,4.16
2023-01-13T16:46:24.407Z,4.17
2023-01-13T16:48:53.162Z,4.17
2023-01-13T16:51:21.393Z,4.17
2023-01-13T16:53:48.607Z,4.18
2023-01-13T16:56:26.156Z,4.17
2023-01-13T16:58:55.889Z,4.19
2023-01-13T17:01:24.357Z,4.19
2023-01-13T17:03:51.913Z,4.11
2023-01-13T17:06:41.059Z,4.12
2023-01-13T17:09:13.465Z,4.19
2023-01-13T17:11:43.319Z,4.23
2023-01-13T17:14:17.980Z,4.25
2023-01-13T17:16:45.877Z,4.25
2023-01-13T17:19:13.023Z,4.26
2023-01-13T17:21:40.413Z,4.23
2023-01-13T17:24:08.062Z,4.27
2023-01-13T17:26:37.417Z,4.31
2023-01-13T17:29:06.841Z,4.30
2023-01-13T17:31:35.585Z,4.34
2023-01-13T17:34:03.991Z,4.32
2023-01-13T17:36:30.895Z,4.32
2023-01-13T17:38:57.922Z,4.31
2023-01-13T17:41:25.662Z,4.33
2023-01-13T17:43:53.561Z,4.35
2023-01-13T17:46:22.640Z,4.35
2023-01-13T17:48:51.001Z,4.27
2023-01-13T17:51:18.548Z,4.33
2023-01-13T17:53:45.704Z,4.25
2023-01-13T17:56:14.500Z,4.29
2023-01-13T17:58:41.871Z,4.30
2023-01-13T18:01:15.371Z,4.30
2023-01-13T18:03:42.722Z,4.30
2023-01-13T18:06:16.473Z,4.22
2023-01-13T18:08:43.327Z,4.19
2023-01-13T18:11:10.466Z,4.22
2023-01-13T18:13:38.769Z,4.19
2023-01-13T18:16:11.209Z,4.22
2023-01-13T18:18:42.502Z,4.19
2023-01-13T18:21:40.934Z,4.26
2023-01-13T18:24:34.182Z,4.18
2023-01-13T18:27:19.882Z,4.22
2023-01-13T18:29:53.594Z,4.20
2023-01-13T18:32:21.796Z,4.21
2023-01-13T18:34:49.069Z,4.20
2023-01-13T18:37:18.094Z,4.24
2023-01-13T18:39:47.776Z,4.23
2023-01-13T18:42:33.616Z,4.25
2023-01-13T18:45:00.517Z,4.24
2023-01-13T18:47:30.444Z,4.23
2023-01-13T18:49:58.235Z,4.23
2023-01-13T18:52:25.789Z,4.23
2023-01-13T18:54:53.354Z,4.23
2023-01-13T18:57:21.968Z,4.10
2023-01-13T18:59:50.050Z,4.17
2023-01-13T19:02:20.184Z,4.08
2023-01-13T19:04:47.924Z,4.08
2023-01-13T19:07:22.256Z,4.01
2023-01-13T19:09:50.408Z,3.97
2023-01-13T19:12:25.874Z,4.02
2023-01-13T19:14:56.399Z,3.98
2023-01-13T19:17:25.314Z,4.00
2023-01-13T19:19:56.024Z,3.97
2023-01-13T19:22:27.372Z,3.94
2023-01-13T19:24:54.454Z,3.96
2023-01-13T19:27:22.202Z,3.98
2023-01-13T19:29:52.474Z,3.96
2023-01-13T19:32:21.902Z,3.96
2023-01-13T19:34:50.801Z,3.97
2023-01-13T19:37:17.986Z,3.87
2023-01-13T19:39:45.455Z,3.89
2023-01-13T19:42:31.422Z,3.91
2023-01-13T19:45:17.389Z,4.02
2023-01-13T19:47:45.828Z,4.05
2023-01-13T19:50:14.496Z,4.07
2023-01-13T19:52:44.515Z,4.04
2023-01-13T19:55:12.550Z,4.04
2023-01-13T19:57:43.411Z,4.02
2023-01-13T20:00:14.068Z,3.99
2023-01-13T20:02:47.683Z,4.01
2023-01-13T20:05:18.185Z,3.96
2023-01-13T20:07:45.121Z,3.96
2023-01-13T20:10:13.423Z,3.98
2023-01-13T20:12:42.652Z,3.92
2023-01-13T20:15:10.383Z,3.97
2023-01-13T20:17:37.561Z,3.95
2023-01-13T20:20:05.595Z,3.93
2023-01-13T20:22:37.416Z,3.92
2023-01-13T20:25:05.410Z,3.97
2023-01-13T20:27:32.584Z,4.03
2023-01-13T20:30:01.011Z,3.98
2023-01-13T20:32:28.146Z,3.98
2023-01-13T20:34:55.327Z,3.98
2023-01-13T20:37:22.833Z,3.98
2023-01-13T20:39:50.495Z,3.96
2023-01-13T20:42:30.638Z,4.05
2023-01-13T20:45:01.145Z,4.08
2023-01-13T20:47:29.368Z,4.15
2023-01-13T20:49:56.611Z,4.19
2023-01-13T20:52:25.476Z,4.24
2023-01-13T20:54:53.181Z,4.20
2023-01-13T20:57:20.306Z,4.21
2023-01-13T20:59:53.095Z,4.23
2023-01-13T21:02:22.675Z,4.23
2023-01-13T21:04:49.542Z,4.25
2023-01-13T21:07:16.313Z,4.22
2023-01-13T21:09:43.331Z,4.22
2023-01-13T21:12:32.984Z,4.20
2023-01-13T21:15:18.215Z,4.19
2023-01-13T21:18:05.537Z,4.15
2023-01-13T21:20:37.250Z,4.17
2023-01-13T21:23:04.625Z,4.23
2023-01-13T21:25:33.032Z,4.21
2023-01-13T21:28:08.131Z,4.32
2023-01-13T21:30:36.216Z,4.31
2023-01-13T21:33:04.854Z,4.27
2023-01-13T21:35:32.008Z,4.22
2023-01-13T21:37:58.896Z,4.19
2023-01-13T21:40:25.966Z,4.14
2023-01-13T21:43:11.649Z,4.07
2023-01-13T21:45:58.030Z,4.06
2023-01-13T21:48:24.922Z,4.04
2023-01-13T21:50:51.854Z,4.02
2023-01-13T21:53:18.700Z,4.01
2023-01-13T21:55:50.574Z,3.99
2023-01-13T21:58:17.353Z,3.97
2023-01-13T22:00:44.861Z,4.02
2023-01-13T22:03:14.686Z,4.05
2023-01-13T22:05:41.714Z,4.08
2023-01-13T22:08:08.737Z,4.06
2023-01-13T22:10:35.902Z,4.09
2023-01-13T22:13:23.321Z,4.14
2023-01-13T22:15:50.334Z,4.22
2023-01-13T22:18:18.281Z,4.15
2023-01-13T22:20:45.677Z,4.21
2023-01-13T22:23:13.232Z,4.25
2023-01-13T22:25:40.059Z,4.25
2023-01-13T22:28:09.125Z,4.31
2023-01-13T22:30:36.120Z,4.32
2023-01-13T22:33:03.090Z,4.31
2023-01-13T22:35:30.005Z,4.15
2023-01-13T22:37:56.876Z,4.14
2023-01-13T22:40:24.461Z,4.10
2023-01-13T22:42:51.317Z,4.04
2023-01-13T22:45:18.228Z,4.07
2023-01-13T22:47:45.896Z,4.05
2023-01-13T22:50:13.881Z,4.05
2023-01-13T22:52:41.304Z,4.09
2023-01-13T22:55:08.565Z,4.09
2023-01-13T22:57:42.431Z,4.08
2023-01-13T23:00:18.808Z,4.13
2023-01-13T23:02:46.448Z,4.08
2023-01-13T23:05:13.939Z,4.09
2023-01-13T23:07:41.187Z,4.06
2023-01-13T23:10:09.698Z,4.05
2023-01-13T23:12:37.100Z,4.12
2023-01-13T23:15:04.582Z,4.15
2023-01-13T23:17:31.597Z,4.15
2023-01-13T23:19:58.877Z,4.18
2023-01-13T23:22:25.776Z,4.10
2023-01-13T23:24:52.709Z,4.04
2023-01-13T23:27:19.601Z,3.98
2023-01-13T23:29:46.855Z,4.00
2023-01-13T23:32:13.636Z,3.99
2023-01-13T23:34:40.572Z,3.94
2023-01-13T23:37:07.389Z,3.92
2023-01-13T23:39:34.180Z,4.01
2023-01-13T23:42:01.114Z,4.09
2023-01-13T23:44:27.950Z,4.06
2023-01-13T23:46:54.907Z,4.06
2023-01-13T23:49:21.927Z,4.03
2023-01-13T23:51:52.160Z,3.95
2023-01-13T23:54:20.022Z,3.98
2023-01-13T23:56:49.589Z,4.03
2023-01-13T23:59:16.477Z,4.07
